createdAt,value
2023-05-23T00:00:17.696Z,21.17
2023-05-23T00:03:03.499Z,20.80
2023-05-23T00:05:50.310Z,25.95
2023-05-23T00:08:35.291Z,18.45
2023-05-23T00:11:24.121Z,17.45
2023-05-23T00:14:09.697Z,17.60
2023-05-23T00:16:55.034Z,10.73
2023-05-23T00:19:40.310Z,12.18
2023-05-23T00:22:25.716Z,12.35
2023-05-23T00:25:11.275Z,12.75
2023-05-23T00:27:56.610Z,12.88
2023-05-23T00:30:42.867Z,12.63
2023-05-23T00:33:29.790Z,10.60
2023-05-23T00:36:15.400Z,14.13
2023-05-23T00:39:02.404Z,17.20
2023-05-23T00:41:51.467Z,13.30
2023-05-23T00:44:38.027Z,17.05
2023-05-23T00:47:23.548Z,20.40
2023-05-23T00:50:11.813Z,18.90
2023-05-23T00:52:58.950Z,15.50
2023-05-23T00:55:45.087Z,22.63
2023-05-23T00:58:30.798Z,18.35
2023-05-23T01:01:17.256Z,24.77
2023-05-23T01:04:04.415Z,19.23
2023-05-23T01:06:50.061Z,21.05
2023-05-23T01:09:35.622Z,23.10
2023-05-23T01:12:31.416Z,21.45
2023-05-23T01:15:21.583Z,23.60
2023-05-23T01:18:12.918Z,21.10
2023-05-23T01:21:06.563Z,20.10
2023-05-23T01:23:59.160Z,23.13
2023-05-23T01:27:03.160Z,23.77
2023-05-23T01:29:54.888Z,24.85
2023-05-23T01:32:41.349Z,20.27
2023-05-23T01:35:27.758Z,24.75
2023-05-23T01:38:13.392Z,21.73
2023-05-23T01:40:58.484Z,26.45
2023-05-23T01:43:44.072Z,24.23
2023-05-23T01:46:30.969Z,18.95
2023-05-23T01:49:18.149Z,21.95
2023-05-23T01:52:05.975Z,21.20
2023-05-23T01:54:52.741Z,16.42
2023-05-23T01:57:39.003Z,14.70
2023-05-23T02:00:24.422Z,18.52
2023-05-23T02:03:11.816Z,17.33
2023-05-23T02:05:57.277Z,22.13
2023-05-23T02:08:43.183Z,23.73
2023-05-23T02:11:28.477Z,22.58
2023-05-23T02:14:14.086Z,24.85
2023-05-23T02:17:00.368Z,21.42
2023-05-23T02:19:46.129Z,23.83
2023-05-23T02:22:31.723Z,24.25
2023-05-23T02:25:17.389Z,16.13
2023-05-23T02:28:02.860Z,18.23
2023-05-23T02:30:48.332Z,23.85
2023-05-23T02:33:33.869Z,21.27
2023-05-23T02:36:19.351Z,21.17
2023-05-23T02:39:05.726Z,24.13
2023-05-23T02:41:51.453Z,24.35
2023-05-23T02:44:36.820Z,25.02
2023-05-23T02:47:22.278Z,16.75
2023-05-23T02:50:08.098Z,19.02
2023-05-23T02:52:53.633Z,23.38
2023-05-23T02:55:39.578Z,18.67
2023-05-23T02:58:25.354Z,20.25
2023-05-23T03:01:11.984Z,17.80
2023-05-23T03:03:58.149Z,17.75
2023-05-23T03:06:44.314Z,19.70
2023-05-23T03:09:29.905Z,21.17
2023-05-23T03:12:15.551Z,17.27
2023-05-23T03:15:00.952Z,14.50
2023-05-23T03:17:46.475Z,14.55
2023-05-23T03:20:34.361Z,14.23
2023-05-23T03:23:19.880Z,12.43
2023-05-23T03:26:06.629Z,15.77
2023-05-23T03:28:52.662Z,13.77
2023-05-23T03:31:38.327Z,12.25
2023-05-23T03:34:23.934Z,14.60
2023-05-23T03:37:09.512Z,10.10
2023-05-23T03:39:54.943Z,12.43
2023-05-23T03:42:40.381Z,13.57
2023-05-23T03:45:27.734Z,10.82
2023-05-23T03:48:13.226Z,11.30
2023-05-23T03:51:00.261Z,10.85
2023-05-23T03:53:45.678Z,11.82
2023-05-23T03:56:31.193Z,12.95
2023-05-23T03:59:17.282Z,12.77
2023-05-23T04:02:03.701Z,13.82
2023-05-23T04:04:48.908Z,9.88
2023-05-23T04:07:34.821Z,12.52
2023-05-23T04:10:20.521Z,10.27
2023-05-23T04:13:06.651Z,11.75
2023-05-23T04:15:52.589Z,14.65
2023-05-23T04:18:39.236Z,12.23
2023-05-23T04:21:25.606Z,15.60
2023-05-23T04:24:38.213Z,12.77
2023-05-23T04:27:25.997Z,18.15
2023-05-23T04:30:14.272Z,14.75
2023-05-23T04:33:02.374Z,13.63
2023-05-23T04:35:49.352Z,13.48
2023-05-23T04:38:35.410Z,11.50
2023-05-23T04:41:23.433Z,15.25
2023-05-23T04:44:18.414Z,17.80
2023-05-23T04:47:19.162Z,18.30
2023-05-23T04:50:14.934Z,18.05
2023-05-23T04:53:00.443Z,17.88
2023-05-23T04:55:46.187Z,15.63
2023-05-23T04:58:35.450Z,18.48
2023-05-23T05:01:28.006Z,12.70
2023-05-23T05:04:13.313Z,16.88
2023-05-23T05:06:58.634Z,17.35
2023-05-23T05:09:44.298Z,19.10
2023-05-23T05:12:30.619Z,15.40
2023-05-23T05:15:20.396Z,15.23
2023-05-23T05:18:12.105Z,16.48
2023-05-23T05:20:58.643Z,18.80
2023-05-23T05:23:43.846Z,16.58
2023-05-23T05:26:29.530Z,19.58
2023-05-23T05:29:15.609Z,23.05
2023-05-23T05:32:01.306Z,15.82
2023-05-23T05:34:49.358Z,20.67
2023-05-23T05:37:35.997Z,15.57
2023-05-23T05:40:21.335Z,16.33
2023-05-23T05:43:06.707Z,13.93
2023-05-23T05:45:52.658Z,10.18
2023-05-23T05:48:38.095Z,15.88
2023-05-23T05:51:26.566Z,13.95
2023-05-23T05:54:11.929Z,15.13
2023-05-23T05:56:57.302Z,10.90
2023-05-23T05:59:43.185Z,13.10
2023-05-23T06:02:28.595Z,17.40
2023-05-23T06:05:16.317Z,10.68
2023-05-23T06:08:02.035Z,8.45
2023-05-23T06:10:47.503Z,11.20
2023-05-23T06:13:32.791Z,9.95
2023-05-23T06:16:18.128Z,11.75
2023-05-23T06:19:04.090Z,13.20
2023-05-23T06:21:50.520Z,15.88
2023-05-23T06:24:35.902Z,10.13
2023-05-23T06:27:21.762Z,12.30
2023-05-23T06:30:07.727Z,13.05
2023-05-23T06:32:53.467Z,12.00
2023-05-23T06:35:38.799Z,13.15
2023-05-23T06:38:24.158Z,19.63
2023-05-23T06:41:09.550Z,13.90
2023-05-23T06:43:55.892Z,20.52
2023-05-23T06:46:45.349Z,16.13
2023-05-23T06:49:31.320Z,10.40
2023-05-23T06:52:16.575Z,14.77
2023-05-23T06:55:02.418Z,16.40
2023-05-23T06:57:47.694Z,14.20
2023-05-23T07:00:33.218Z,13.68
2023-05-23T07:03:29.668Z,14.52
2023-05-23T07:06:19.296Z,16.67
2023-05-23T07:09:05.313Z,15.20
2023-05-23T07:11:51.016Z,18.65
2023-05-23T07:14:38.121Z,12.52
2023-05-23T07:17:24.282Z,12.88
2023-05-23T07:20:10.250Z,13.48
2023-05-23T07:22:57.350Z,18.13
2023-05-23T07:25:53.853Z,12.23
2023-05-23T07:28:50.293Z,12.45
2023-05-23T07:31:36.104Z,12.05
2023-05-23T07:34:22.172Z,15.60
2023-05-23T07:37:14.178Z,14.95
2023-05-23T07:40:02.600Z,12.40
2023-05-23T07:42:48.151Z,14.50
2023-05-23T07:45:33.626Z,10.60
2023-05-23T07:48:19.619Z,15.77
2023-05-23T07:51:05.197Z,11.77
2023-05-23T07:53:50.448Z,14.35
2023-05-23T07:56:40.937Z,12.13
2023-05-23T07:59:26.907Z,14.85
2023-05-23T08:02:14.025Z,12.80
2023-05-23T08:05:00.464Z,17.70
2023-05-23T08:07:46.094Z,14.65
2023-05-23T08:10:32.394Z,11.23
2023-05-23T08:13:25.209Z,14.48
2023-05-23T08:16:30.876Z,14.23
2023-05-23T08:19:16.472Z,13.90
2023-05-23T08:22:04.624Z,10.77
2023-05-23T08:24:50.086Z,13.93
2023-05-23T08:27:36.667Z,15.38
2023-05-23T08:30:30.025Z,12.82
2023-05-23T08:33:15.429Z,13.10
2023-05-23T08:36:04.043Z,17.75
2023-05-23T08:38:51.745Z,11.38
2023-05-23T08:41:43.945Z,12.27
2023-05-23T08:44:30.815Z,11.90
2023-05-23T08:47:20.382Z,14.35
2023-05-23T08:50:21.873Z,12.20
2023-05-23T08:53:10.272Z,9.38
2023-05-23T08:56:02.322Z,14.85
2023-05-23T08:58:55.574Z,11.75
2023-05-23T09:01:43.254Z,13.32
2023-05-23T09:04:32.410Z,11.32
2023-05-23T09:07:22.525Z,13.55
2023-05-23T09:10:10.853Z,16.92
2023-05-23T09:12:56.485Z,13.05
2023-05-23T09:16:04.251Z,12.82
2023-05-23T09:18:55.740Z,12.00
2023-05-23T09:21:46.717Z,8.80
2023-05-23T09:24:40.046Z,12.82
2023-05-23T09:27:28.045Z,13.77
2023-05-23T09:30:14.232Z,18.00
2023-05-23T09:33:05.515Z,14.93
2023-05-23T09:35:51.828Z,12.38
2023-05-23T09:38:46.067Z,14.75
2023-05-23T09:41:35.199Z,12.75
2023-05-23T09:44:24.151Z,13.52
2023-05-23T09:47:09.574Z,12.70
2023-05-23T09:49:55.610Z,14.93
2023-05-23T09:52:41.445Z,12.35
2023-05-23T09:55:27.290Z,10.55
2023-05-23T09:58:13.971Z,11.45
2023-05-23T10:01:03.774Z,20.40
2023-05-23T10:03:51.697Z,9.75
2023-05-23T10:06:54.069Z,14.45
2023-05-23T10:09:41.656Z,14.25
2023-05-23T10:12:44.465Z,15.80
2023-05-23T10:15:36.390Z,12.52
2023-05-23T10:18:26.833Z,14.00
2023-05-23T10:21:15.656Z,12.90
2023-05-23T10:24:02.304Z,11.70
2023-05-23T10:26:48.681Z,12.77
2023-05-23T10:29:35.442Z,15.02
2023-05-23T10:32:21.250Z,14.73
2023-05-23T10:35:45.406Z,10.35
2023-05-23T10:38:51.917Z,11.60
2023-05-23T10:41:53.064Z,11.27
2023-05-23T10:44:38.611Z,10.57
2023-05-23T10:47:28.810Z,16.92
2023-05-23T10:50:17.099Z,11.48
2023-05-23T10:53:05.013Z,12.43
2023-05-23T10:55:50.007Z,10.80
2023-05-23T10:58:37.543Z,12.88
2023-05-23T11:01:23.636Z,7.88
2023-05-23T11:04:12.296Z,11.60
2023-05-23T11:06:58.632Z,14.20
2023-05-23T11:10:14.099Z,13.25
2023-05-23T11:13:08.648Z,13.80
2023-05-23T11:15:54.300Z,12.32
2023-05-23T11:18:39.823Z,9.70
2023-05-23T11:21:25.920Z,13.18
2023-05-23T11:24:11.439Z,10.82
2023-05-23T11:27:01.291Z,8.90
2023-05-23T11:30:00.317Z,12.35
2023-05-23T11:32:54.414Z,11.50
2023-05-23T11:35:48.145Z,9.95
2023-05-23T11:38:34.225Z,11.50
2023-05-23T11:41:19.693Z,8.85
2023-05-23T11:44:13.186Z,10.52
2023-05-23T11:47:08.422Z,12.43
2023-05-23T11:49:54.736Z,10.80
2023-05-23T11:52:40.170Z,10.25
2023-05-23T11:55:25.907Z,8.07
2023-05-23T11:58:11.551Z,17.20
2023-05-23T12:01:03.758Z,10.88
2023-05-23T12:03:51.404Z,14.77
2023-05-23T12:06:40.758Z,9.27
2023-05-23T12:09:26.120Z,11.23
2023-05-23T12:12:13.161Z,10.43
2023-05-23T12:14:58.841Z,9.35
2023-05-23T12:17:46.326Z,7.05
2023-05-23T12:20:34.923Z,11.00
2023-05-23T12:23:24.894Z,8.30
2023-05-23T12:26:12.709Z,7.38
2023-05-23T12:29:00.119Z,8.55
2023-05-23T12:31:49.066Z,9.88
2023-05-23T12:34:34.948Z,10.93
2023-05-23T12:37:21.989Z,9.40
2023-05-23T12:40:18.410Z,11.18
2023-05-23T12:43:08.710Z,12.23
2023-05-23T12:45:54.114Z,10.50
2023-05-23T12:48:39.531Z,7.50
2023-05-23T12:51:25.109Z,8.88
2023-05-23T12:54:10.466Z,9.20
2023-05-23T12:56:56.442Z,10.48
2023-05-23T12:59:42.117Z,10.02
2023-05-23T13:02:28.813Z,8.85
2023-05-23T13:05:14.484Z,11.25
2023-05-23T13:08:00.279Z,7.05
2023-05-23T13:10:46.146Z,9.27
2023-05-23T13:13:33.782Z,9.90
2023-05-23T13:16:19.158Z,10.30
2023-05-23T13:19:04.792Z,10.50
2023-05-23T13:21:50.350Z,7.72
2023-05-23T13:24:39.196Z,9.07
2023-05-23T13:27:24.341Z,9.65
2023-05-23T13:30:10.069Z,7.68
2023-05-23T13:32:55.799Z,6.63
2023-05-23T13:35:41.622Z,11.95
2023-05-23T13:38:27.662Z,18.23
2023-05-23T13:41:13.232Z,9.43
2023-05-23T13:43:58.746Z,7.43
2023-05-23T13:46:44.222Z,12.75
2023-05-23T13:49:29.614Z,6.03
2023-05-23T13:52:15.435Z,11.52
2023-05-23T13:55:01.564Z,11.43
2023-05-23T13:57:47.153Z,8.60
2023-05-23T14:00:32.721Z,9.63
2023-05-23T14:03:19.456Z,7.70
2023-05-23T14:06:04.985Z,7.55
2023-05-23T14:08:51.135Z,7.68
2023-05-23T14:11:36.477Z,7.00
2023-05-23T14:14:21.992Z,10.68
2023-05-23T14:17:07.671Z,8.85
2023-05-23T14:19:53.104Z,7.60
2023-05-23T14:22:38.670Z,4.90
2023-05-23T14:25:24.185Z,7.45
2023-05-23T14:28:09.524Z,7.10
2023-05-23T14:30:55.836Z,7.78
2023-05-23T14:33:41.725Z,6.10
2023-05-23T14:36:28.510Z,8.52
2023-05-23T14:39:14.270Z,7.38
2023-05-23T14:41:59.642Z,11.57
2023-05-23T14:44:45.254Z,9.20
2023-05-23T14:47:32.108Z,10.55
2023-05-23T14:50:17.524Z,8.52
2023-05-23T14:53:03.121Z,11.40
2023-05-23T14:55:48.456Z,8.60
2023-05-23T14:58:33.938Z,11.65
2023-05-23T15:01:19.406Z,9.80
2023-05-23T15:04:05.772Z,6.82
2023-05-23T15:06:51.104Z,8.18
2023-05-23T15:09:36.652Z,7.82
2023-05-23T15:12:22.622Z,10.52
2023-05-23T15:15:08.874Z,8.77
2023-05-23T15:17:54.132Z,10.27
2023-05-23T15:20:39.536Z,8.57
2023-05-23T15:23:24.696Z,11.35
2023-05-23T15:26:10.257Z,14.15
2023-05-23T15:28:55.906Z,12.80
2023-05-23T15:31:42.012Z,12.45
2023-05-23T15:34:27.749Z,13.98
2023-05-23T15:37:13.111Z,10.20
2023-05-23T15:39:58.627Z,10.65
2023-05-23T15:42:44.129Z,10.07
2023-05-23T15:45:29.519Z,11.80
2023-05-23T15:48:15.396Z,9.82
2023-05-23T15:51:00.989Z,12.75
2023-05-23T15:54:00.224Z,10.75
2023-05-23T15:56:46.434Z,7.93
2023-05-23T15:59:32.030Z,12.88
2023-05-23T16:02:18.908Z,12.10
2023-05-23T16:05:04.828Z,10.48
2023-05-23T16:07:51.312Z,8.25
2023-05-23T16:10:37.000Z,7.30
2023-05-23T16:13:22.583Z,8.40
2023-05-23T16:16:08.327Z,7.95
2023-05-23T16:18:53.563Z,9.68
2023-05-23T16:21:39.078Z,10.98
2023-05-23T16:24:24.769Z,10.10
2023-05-23T16:27:10.150Z,8.30
2023-05-23T16:29:55.549Z,12.10
2023-05-23T16:32:41.076Z,11.15
2023-05-23T16:35:26.458Z,10.30
2023-05-23T16:38:12.133Z,12.50
2023-05-23T16:40:57.545Z,7.28
2023-05-23T16:43:43.047Z,4.78
2023-05-23T16:46:28.485Z,6.93
2023-05-23T16:49:14.014Z,10.52
2023-05-23T16:51:59.394Z,8.63
2023-05-23T16:54:45.037Z,9.25
2023-05-23T16:57:30.391Z,10.68
2023-05-23T17:00:17.115Z,10.90
2023-05-23T17:03:02.894Z,8.23
2023-05-23T17:05:48.325Z,7.35
2023-05-23T17:08:33.759Z,9.50
2023-05-23T17:11:19.709Z,9.38
2023-05-23T17:14:04.856Z,11.32
2023-05-23T17:16:50.327Z,10.15
2023-05-23T17:19:36.105Z,7.85
